Latest Weather Observations for Merriwa

IDN60801

Issued at 12:32 pm EDT Sunday 26 March 2017 (issued every 30 minutes, with the page automatically refreshed every 10 minutes)

About weather observations | Map of weather stations | Latest weather observations for NSW | Other Formats
Station Details ID: 061287 Name: MERRIWA (ROSCOMMON) Lat: -32.19 Lon: 150.17 Height: 375.0 m
Data from the previous 72 hours. | See also: Recent months at Merriwa
Date/Time
EDT
Temp
°C
App
Temp
°C
Dew
Point
°C
Rel
Hum
%
Delta-T
°C
Wind Press
QNH
hPa
Press
MSL
hPa
Rain since
9am
mm
Dir  Spd
km/h
Gust
km/h
Spd
kts
Gust
kts
26/12:30pm 24.6 28.6 23.7 95 0.6 ENE 9 13 5 7 1016.9 1015.6 0.0
26/12:17pm 24.4 28.7 23.7 96 0.5 E 7 13 4 7 1017.1 1015.8 0.0
26/12:00pm 23.8 27.6 23.5 98 0.2 E 9 13 5 7 1017.3 1015.9 0.0
26/11:57am 23.9 27.8 23.6 98 0.2 ESE 9 13 5 7 1017.3 1015.9 0.0
26/11:30am 23.3 26.9 23.1 99 0.1 E 9 17 5 9 1017.4 1016.0 0.0
26/11:13am 22.2 25.2 22.0 99 0.1 ESE 9 13 5 7 1017.6 1016.2 0.0
26/11:00am 22.2 25.2 22.0 99 0.1 ESE 9 11 5 6 1017.7 1016.3 0.0
26/10:30am 21.6 24.3 21.4 99 0.1 E 9 13 5 7 1017.6 1016.2 0.0
26/10:00am 20.6 22.5 20.6 100 0.0 E 11 15 6 8 1017.7 1016.3 0.0
26/09:30am 20.8 23.2 20.8 100 0.0 NE 9 11 5 6 1017.5 1016.1 0.0
26/09:00am 20.1 22.5 20.1 100 0.0 E 7 9 4 5 1017.3 1015.9 1.2
26/08:30am 18.8 22.0 18.8 100 0.0 CALM 0 0 0 0 1016.7 1015.4 1.2
26/08:16am 18.4 21.4 18.4 100 0.0 CALM 0 0 0 0 1016.5 1015.2 1.2
26/08:00am 17.8 20.5 17.8 100 0.0 CALM 0 0 0 0 1016.4 1015.1 1.2
26/07:30am 16.3 17.3 16.3 100 0.0 SE 6 6 3 3 1016.1 1014.8 1.2
26/07:00am 16.2 18.3 16.2 100 0.0 CALM 0 0 0 0 1016.0 1014.7 1.2
26/06:48am 16.5 18.7 16.5 100 0.0 CALM 0 0 0 0 1015.8 1014.5 1.2
26/06:30am 16.9 19.3 16.9 100 0.0 CALM 0 0 0 0 1015.5 1014.1 1.2
26/06:29am 16.9 19.3 16.9 100 0.0 CALM 0 0 0 0 1015.5 1014.1 1.2
26/06:00am 17.4 20.0 17.4 100 0.0 CALM 0 0 0 0 1015.3 1013.9 1.2
26/05:30am 17.9 20.7 17.9 100 0.0 CALM 0 0 0 0 1015.1 1013.7 1.2
26/05:00am 17.9 20.7 17.9 100 0.0 CALM 0 0 0 0 1014.9 1013.5 1.2
26/04:30am 17.8 20.5 17.8 100 0.0 CALM 0 0 0 0 1014.7 1013.3 1.2
26/04:00am 18.2 21.1 18.2 100 0.0 CALM 0 0 0 0 1014.9 1013.5 1.2
26/03:30am 18.4 19.7 18.4 100 0.0 ESE 9 9 5 5 1014.8 1013.4 1.2
26/03:00am 18.3 21.2 18.3 100 0.0 CALM 0 7 0 4 1015.3 1013.9 1.2
26/02:30am 18.1 20.9 17.9 99 0.1 CALM 0 0 0 0 1015.7 1014.4 1.2
26/02:00am 18.6 21.6 18.4 99 0.1 CALM 0 0 0 0 1015.7 1014.4 1.2
26/01:30am 19.0 19.8 19.0 100 0.0 SE 13 17 7 9 1015.5 1014.1 1.2
26/01:00am 18.8 21.5 18.6 99 0.1 ENE 2 6 1 3 1015.7 1014.4 0.4
26/12:30am 18.9 22.0 18.7 99 0.1 CALM 0 0 0 0 1016.2 1014.9 0.4
26/12:00am 19.4 22.7 19.2 99 0.1 CALM 0 0 0 0 1015.9 1014.6 0.4
 
Date/Time
EDT
Temp
°C
App
Temp
°C
Dew
Point
°C
Rel
Hum
%
Delta-T
°C
Wind Press
QNH
hPa
Press
MSL
hPa
Rain since
9am
mm
Dir  Spd
km/h
Gust
km/h
Spd
kts
Gust
kts
25/11:30pm 19.4 21.6 19.2 99 0.1 ESE 6 7 3 4 1015.9 1014.6 0.2
25/11:00pm 19.4 21.6 19.1 98 0.2 ENE 6 7 3 4 1015.9 1014.6 0.2
25/10:30pm 19.7 21.8 19.4 98 0.2 E 7 11 4 6 1015.6 1014.2 0.2
25/10:00pm 20.1 22.0 19.8 98 0.2 ESE 9 13 5 7 1015.6 1014.2 0.2
25/09:30pm 20.1 21.8 19.4 96 0.4 ESE 9 11 5 6 1015.5 1014.1 0.2
25/09:00pm 20.8 22.6 19.6 93 0.8 SE 9 11 5 6 1015.3 1013.9 0.2
25/08:30pm 21.8 23.1 19.4 86 1.5 ESE 11 15 6 8 1014.5 1013.1 0.0
25/08:00pm 21.7 22.9 19.1 85 1.7 ESE 11 15 6 8 1014.3 1013.0 0.0
25/07:30pm 21.7 22.6 18.5 82 2.0 E 11 15 6 8 1014.0 1012.7 0.0
25/07:00pm 22.8 24.3 19.0 79 2.4 ESE 9 13 5 7 1014.1 1012.8 0.0
25/06:30pm 23.7 24.4 18.8 74 3.2 ESE 13 17 7 9 1013.7 1012.4 0.0
25/06:00pm 25.1 25.7 19.5 71 3.7 E 15 19 8 10 1013.7 1012.4 0.0
25/05:30pm 25.8 27.5 20.1 71 3.8 E 11 15 6 8 1013.8 1012.5 0.0
25/05:00pm 26.0 27.9 20.6 72 3.6 ESE 11 17 6 9 1013.8 1012.5 0.0
25/04:30pm 25.7 28.2 20.3 72 3.6 ESE 7 15 4 8 1014.1 1012.8 0.0
25/04:00pm 25.5 27.3 20.3 73 3.4 E 11 19 6 10 1014.3 1013.0 0.0
25/03:30pm 25.1 27.2 20.1 74 3.3 SSW 9 13 5 7 1014.8 1013.4 0.0
25/03:00pm 24.8 27.0 20.3 76 3.0 SE 9 15 5 8 1015.2 1013.8 0.0
25/02:30pm 25.0 27.7 20.7 77 2.9 ESE 7 11 4 6 1015.6 1014.2 0.0
25/02:00pm 23.8 25.7 19.7 78 2.7 E 9 17 5 9 1015.9 1014.6 0.0
25/01:30pm 22.9 24.6 19.3 80 2.3 E 9 17 5 9 1016.4 1015.1 0.0
25/01:00pm 22.1 24.1 19.1 83 1.9 SE 7 11 4 6 1017.0 1015.7 0.0
25/12:30pm 22.0 23.9 19.7 87 1.5 E 9 15 5 8 1017.5 1016.1 0.0
25/12:00pm 20.7 21.9 19.0 90 1.1 SE 11 19 6 10 1018.3 1017.0 0.0
25/11:50am 21.0 22.9 19.8 93 0.8 E 9 17 5 9 1018.4 1017.1 0.0
25/11:30am 19.3 20.2 18.5 95 0.5 SE 11 17 6 9 1018.6 1017.3 0.0
25/11:00am 19.3 20.8 19.0 98 0.2 ESE 9 15 5 8 1018.7 1017.4 0.0
25/10:30am 18.6 19.5 18.3 98 0.2 SE 11 17 6 9 1019.1 1017.8 0.0
25/10:00am 18.1 18.8 17.9 99 0.1 ESE 11 15 6 8 1019.0 1017.7 0.0
25/09:30am 17.9 18.5 17.7 99 0.1 ESE 11 15 6 8 1018.6 1017.3 0.0
25/09:05am 17.1 17.7 16.9 99 0.1 E 9 13 5 7 1018.6 1017.3 0.0
25/09:00am 16.9 17.5 16.7 99 0.1 ESE 9 13 5 7 1018.7 1017.4 1.2
25/08:30am 16.5 17.0 16.5 100 0.0 E 9 15 5 8 1018.4 1017.1 1.2
25/08:00am 16.1 17.0 16.1 100 0.0 NE 6 9 3 5 1018.4 1017.1 1.2
25/07:30am 15.4 16.4 15.4 100 0.0 E 4 7 2 4 1018.3 1017.0 1.2
25/07:00am 14.9 14.8 14.9 100 0.0 ENE 9 11 5 6 1017.9 1016.5 1.2
25/06:30am 14.6 14.9 14.6 100 0.0 NE 6 9 3 5 1018.0 1016.7 1.2
25/06:00am 14.7 14.9 14.7 100 0.0 NE 7 9 4 5 1018.0 1016.7 1.2
25/05:46am 14.6 14.8 14.6 100 0.0 ENE 7 9 4 5 1018.0 1016.7 1.2
25/05:30am 14.9 15.4 14.9 100 0.0 E 6 7 3 4 1017.9 1016.5 1.2
25/05:17am 14.9 15.2 14.9 100 0.0 E 7 9 4 5 1018.0 1016.7 1.2
25/05:00am 15.0 15.3 15.0 100 0.0 E 7 9 4 5 1018.0 1016.7 1.2
25/04:30am 14.9 14.7 14.7 99 0.1 E 9 11 5 6 1018.0 1016.7 1.2
25/04:00am 15.4 15.0 15.2 99 0.1 E 11 13 6 7 1018.1 1016.8 1.2
25/03:48am 15.6 15.3 15.4 99 0.1 E 11 13 6 7 1018.0 1016.7 1.2
25/03:30am 15.7 15.4 15.5 99 0.1 ESE 11 15 6 8 1018.1 1016.8 1.2
25/03:03am 16.3 15.5 16.1 99 0.1 ESE 15 20 8 11 1018.1 1016.8 1.2
25/03:00am 16.5 15.8 16.3 99 0.1 ESE 15 19 8 10 1018.2 1016.9 1.2
25/02:32am 16.5 15.4 16.3 99 0.1 ESE 17 22 9 12 1018.3 1017.0 1.2
25/02:30am 16.6 15.5 16.4 99 0.1 ESE 17 22 9 12 1018.3 1017.0 1.2
25/02:00am 16.7 15.7 16.5 99 0.1 ESE 17 22 9 12 1018.9 1017.6 1.2
25/01:30am 16.7 16.0 16.5 99 0.1 ESE 15 20 8 11 1019.1 1017.8 1.2
25/01:24am 16.5 16.1 16.3 99 0.1 ESE 13 20 7 11 1019.1 1017.8 1.2
25/01:12am 16.3 15.5 16.1 99 0.1 ESE 15 26 8 14 1019.2 1017.9 1.2
25/01:00am 16.3 14.7 16.1 99 0.1 ESE 19 26 10 14 1018.7 1017.4 1.2
25/12:44am 16.5 16.1 16.3 99 0.1 E 13 15 7 8 1019.4 1018.1 1.2
25/12:30am 16.0 15.5 15.8 99 0.1 ESE 13 19 7 10 1019.5 1018.2 1.2
25/12:00am 16.4 15.6 16.2 99 0.1 ESE 15 20 8 11 1019.6 1018.3 1.2
 
Date/Time
EDT
Temp
°C
App
Temp
°C
Dew
Point
°C
Rel
Hum
%
Delta-T
°C
Wind Press
QNH
hPa
Press
MSL
hPa
Rain since
9am
mm
Dir  Spd
km/h
Gust
km/h
Spd
kts
Gust
kts
24/11:30pm 16.6 15.5 16.4 99 0.1 ESE 17 22 9 12 1019.8 1018.5 1.2
24/11:00pm 16.9 15.4 16.7 99 0.1 ESE 20 26 11 14 1019.9 1018.6 1.2
24/10:30pm 17.2 15.9 16.9 98 0.2 ESE 19 26 10 14 1020.2 1018.8 1.2
24/10:00pm 17.3 16.1 17.0 98 0.2 ESE 19 24 10 13 1019.9 1018.6 1.2
24/09:30pm 17.6 16.5 17.3 98 0.2 ESE 19 26 10 14 1019.6 1018.3 1.2
24/09:00pm 18.1 17.6 17.8 98 0.2 ESE 17 26 9 14 1019.7 1018.4 1.2
24/08:30pm 18.4 17.5 17.8 96 0.4 ESE 19 24 10 13 1019.1 1017.8 1.2
24/08:00pm 19.0 19.2 18.5 97 0.3 ESE 15 19 8 10 1018.9 1017.6 1.2
24/07:30pm 19.1 19.5 18.1 94 0.6 ESE 13 19 7 10 1018.7 1017.4 1.2
24/07:00pm 19.3 19.4 17.4 89 1.2 ESE 13 19 7 10 1018.5 1017.2 1.2
24/06:30pm 20.1 18.8 17.3 84 1.7 ESE 20 30 11 16 1018.6 1017.3 1.2
24/06:00pm 20.4 19.8 17.6 84 1.7 ESE 17 26 9 14 1018.7 1017.4 1.2
24/05:30pm 20.6 19.3 18.2 86 1.5 ESE 22 33 12 18 1018.5 1017.2 1.2
24/05:00pm 21.6 21.4 18.6 83 1.9 E 17 26 9 14 1018.4 1017.1 1.2
24/04:30pm 21.6 21.0 18.8 84 1.8 E 20 32 11 17 1018.4 1017.1 1.2
24/04:00pm 21.7 21.9 19.3 86 1.5 ESE 17 26 9 14 1018.3 1017.0 1.2
24/03:30pm 20.3 19.6 18.6 90 1.1 ESE 20 28 11 15 1018.9 1017.6 1.2
24/03:00pm 21.0 19.3 18.2 84 1.8 ESE 24 33 13 18 1019.0 1017.7 1.2
24/02:30pm 20.9 19.8 19.4 91 1.0 ESE 24 33 13 18 1019.1 1017.8 1.2
24/02:00pm 19.8 19.5 19.5 98 0.2 ESE 20 24 11 13 1019.7 1018.4 1.2
24/01:30pm 19.4 18.9 19.1 98 0.2 ESE 20 28 11 15 1020.2 1018.8 1.2
24/01:00pm 20.4 19.2 20.1 98 0.2 ESE 26 32 14 17 1020.2 1018.8 1.2
24/12:50pm 19.5 17.7 18.8 96 0.4 ESE 26 35 14 19 1020.4 1019.1 1.2
24/12:35pm 20.4 20.0 20.1 98 0.2 ESE 22 28 12 15 1020.6 1019.3 1.2
24/12:30pm 20.4 20.4 20.2 99 0.1 ESE 20 28 11 15 1020.7 1019.4 1.2
24/12:00pm 19.4 18.2 19.2 99 0.1 ESE 24 33 13 18 1020.8 1019.5 1.2
24/11:37am 18.6 17.5 18.6 100 0.0 ESE 22 35 12 19 1021.2 1019.9 1.2
24/11:30am 18.4 17.6 18.4 100 0.0 ESE 20 28 11 15 1021.2 1019.9 1.2
24/11:00am 18.0 17.0 18.0 100 0.0 ESE 20 26 11 14 1021.0 1019.7 1.2
24/10:30am 17.6 16.1 17.6 100 0.0 ESE 22 30 12 16 1021.0 1019.7 1.2
24/10:00am 17.2 16.1 17.2 100 0.0 ESE 19 26 10 14 1021.2 1019.9 1.2
24/09:30am 16.7 16.5 16.7 100 0.0 E 13 20 7 11 1021.0 1019.7 1.2
24/09:00am 16.3 15.9 16.3 100 0.0 ESE 13 15 7 8 1020.9 1019.6 20.6
24/08:30am 16.3 15.6 16.3 100 0.0 ESE 15 20 8 11 1020.5 1019.2 19.6
24/08:26am 16.2 15.8 16.2 100 0.0 ESE 13 17 7 9 1020.5 1019.2 19.2
24/08:00am 16.1 15.3 16.1 100 0.0 E 15 20 8 11 1020.1 1018.7 18.4
24/07:30am 16.2 14.5 16.2 100 0.0 ESE 20 28 11 15 1019.8 1018.5 17.8
24/07:13am 16.4 14.4 16.4 100 0.0 ESE 22 30 12 16 1019.5 1018.2 17.6
24/07:00am 16.7 14.8 16.7 100 0.0 ESE 22 30 12 16 1019.3 1018.0 17.6
24/06:30am 17.0 15.8 17.0 100 0.0 ESE 19 26 10 14 1018.9 1017.6 17.6
24/06:00am 16.9 17.2 16.9 100 0.0 ESE 11 15 6 8 1018.7 1017.4 17.4
24/05:30am 17.1 17.1 17.1 100 0.0 ESE 13 17 7 9 1018.5 1017.2 17.0
24/05:09am 17.1 16.3 17.1 100 0.0 ESE 17 22 9 12 1018.3 1017.0 16.8
24/05:00am 17.2 17.2 17.2 100 0.0 ESE 13 17 7 9 1018.2 1016.9 16.4
24/04:30am 17.2 15.9 17.2 100 0.0 SE 20 26 11 14 1018.0 1016.7 15.8
24/04:08am 17.5 16.5 17.5 100 0.0 SE 19 26 10 14 1018.1 1016.8 14.8
24/04:00am 17.6 16.6 17.6 100 0.0 SE 19 26 10 14 1018.1 1016.8 14.8
24/03:30am 17.8 19.4 17.8 100 0.0 E 6 19 3 10 1018.3 1017.0 13.6
24/03:00am 18.0 17.0 18.0 100 0.0 ESE 20 28 11 15 1017.5 1016.1 0.2
24/02:30am 18.4 17.7 18.2 99 0.1 ESE 19 24 10 13 1017.9 1016.5 0.0
24/02:00am 18.8 18.6 18.6 99 0.1 ESE 17 20 9 11 1017.9 1016.5 0.0
24/01:30am 18.9 19.5 18.7 99 0.1 ESE 13 17 7 9 1018.2 1016.9 0.0
24/01:00am 18.9 18.8 18.7 99 0.1 ESE 17 22 9 12 1017.9 1016.5 0.0
24/12:30am 19.0 18.4 18.8 99 0.1 ESE 20 28 11 15 1018.1 1016.8 0.0
24/12:00am 19.2 18.8 18.9 98 0.2 ESE 19 24 10 13 1018.3 1017.0 0.0
 
Date/Time
EDT
Temp
°C
App
Temp
°C
Dew
Point
°C
Rel
Hum
%
Delta-T
°C
Wind Press
QNH
hPa
Press
MSL
hPa
Rain since
9am
mm
Dir  Spd
km/h
Gust
km/h
Spd
kts
Gust
kts
23/11:30pm 19.3 19.7 19.0 98 0.2 ESE 15 22 8 12 1018.4 1017.1 0.0
23/11:01pm 19.4 20.2 19.1 98 0.2 SE 13 19 7 10 1018.8 1017.5 0.0
23/11:00pm 19.4 20.2 19.1 98 0.2 SE 13 19 7 10 1018.8 1017.5 0.0
23/10:30pm 19.4 19.8 19.1 98 0.2 ESE 15 20 8 11 1018.6 1017.3 0.0
23/10:00pm 19.5 19.6 19.2 98 0.2 ESE 17 22 9 12 1018.5 1017.2 0.0
23/09:35pm 19.5 19.6 19.2 98 0.2 E 17 22 9 12 1018.0 1016.7 0.0
23/09:30pm 19.6 19.8 19.3 98 0.2 E 17 22 9 12 1018.0 1016.7 0.0
23/09:00pm 19.8 20.3 19.3 97 0.3 E 15 20 8 11 1018.3 1017.0 0.0
23/08:56pm 19.8 20.0 19.3 97 0.3 E 17 20 9 11 1018.4 1017.1 0.0
23/08:30pm 20.0 20.1 19.2 95 0.5 ESE 17 24 9 13 1018.2 1016.9 0.0
23/08:00pm 20.3 20.8 19.3 94 0.6 E 15 20 8 11 1018.2 1016.9 0.0
23/07:30pm 20.5 21.4 19.3 93 0.8 ESE 13 17 7 9 1017.6 1016.2 0.0
23/07:00pm 20.7 20.8 19.2 91 1.0 ESE 17 22 9 12 1017.4 1016.0 0.0
23/06:30pm 20.9 20.5 19.0 89 1.2 ESE 19 24 10 13 1017.3 1015.9 0.0
23/06:00pm 21.1 20.5 18.9 87 1.4 ESE 20 26 11 14 1017.3 1015.9 0.0
23/05:30pm 21.8 21.4 19.4 86 1.5 ESE 20 26 11 14 1017.0 1015.7 0.0
23/05:00pm 22.3 22.0 19.5 84 1.8 E 20 26 11 14 1017.1 1015.8 0.0
23/04:30pm 22.6 22.7 19.9 85 1.8 E 19 26 10 14 1017.3 1015.9 0.0
23/04:00pm 22.9 23.1 20.1 84 1.8 ESE 19 24 10 13 1017.3 1015.9 0.0
23/03:30pm 22.1 22.7 20.2 89 1.2 ESE 17 20 9 11 1017.8 1016.4 0.0
23/03:00pm 22.1 22.9 20.7 92 0.9 E 17 20 9 11 1017.8 1016.4 0.0
23/02:30pm 21.9 23.0 20.4 91 1.0 E 15 20 8 11 1017.9 1016.5 0.0
23/02:00pm 21.5 21.9 19.8 90 1.1 E 17 24 9 13 1018.3 1017.0 0.0
23/01:30pm 21.6 22.6 20.2 92 0.9 E 15 20 8 11 1018.8 1017.5 0.0
23/01:07pm 21.8 23.4 21.5 98 0.2 E 15 20 8 11 1019.2 1017.9 0.0
23/01:00pm 21.3 23.0 21.0 98 0.2 E 13 20 7 11 1019.3 1018.0 0.0

Other Formats:

Comma delimited format used in spreadsheet applications
http://www.bom.gov.au/fwo/IDN60801/IDN60801.95754.axf

JavaScript Object Notation format (JSON) in row-major order
http://www.bom.gov.au/fwo/IDN60801/IDN60801.95754.json